Time;durP1;ratioP1;P1;durP2;ratioP2;P2;SDS_P1;SDS_P2;PMS_P1;PMS_P2;Temp;Humidity;BMP_temperature;BMP_pressure;BME280_temperature;BME280_humidity;BME280_pressure;Samples;Min_cycle;Max_cycle;Signal;HPM_P1;HPM_P2
2023/08/17 00:02:22;;;;;;;9.05;6.40;;;21.20;89.60;;;;;;5041644;28;20087;-70
2023/08/17 00:04:47;;;;;;;9.52;6.45;;;21.20;88.90;;;;;;5043346;28;20102;-70
2023/08/17 00:07:13;;;;;;;11.98;6.57;;;21.30;88.70;;;;;;5042463;28;20119;-70
2023/08/17 00:09:39;;;;;;;9.95;6.65;;;21.30;88.40;;;;;;5042960;28;20059;-70
2023/08/17 00:12:06;;;;;;;8.35;6.28;;;21.30;88.60;;;;;;5043662;28;20534;-70
2023/08/17 00:14:32;;;;;;;9.43;6.38;;;21.30;88.00;;;;;;5043000;28;20037;-70
2023/08/17 00:16:58;;;;;;;13.40;7.85;;;21.30;87.90;;;;;;5042146;28;20515;-70
2023/08/17 00:19:24;;;;;;;11.77;7.53;;;21.30;87.60;;;;;;5044169;28;20047;-70
2023/08/17 00:21:52;;;;;;;9.80;6.75;;;21.30;87.60;;;;;;5041485;28;20527;-69
2023/08/17 00:24:18;;;;;;;10.60;6.07;;;21.30;86.70;;;;;;5040822;28;20025;-70
2023/08/17 00:26:44;;;;;;;7.95;5.70;;;21.30;86.50;;;;;;5041166;28;20090;-70
2023/08/17 00:29:10;;;;;;;7.35;6.28;;;21.30;86.30;;;;;;5041527;28;20200;-70
2023/08/17 00:31:36;;;;;;;8.45;6.47;;;21.40;86.60;;;;;;5041995;28;20044;-70
2023/08/17 00:34:02;;;;;;;9.07;6.22;;;21.40;86.30;;;;;;5039714;28;20408;-70
2023/08/17 00:36:29;;;;;;;7.63;6.13;;;21.30;86.30;;;;;;5043453;28;20033;-70
2023/08/17 00:38:55;;;;;;;11.23;6.72;;;21.40;86.20;;;;;;5041206;28;20025;-70
2023/08/17 00:41:21;;;;;;;7.72;6.50;;;21.40;86.30;;;;;;5039542;28;20389;-70
2023/08/17 00:43:47;;;;;;;11.13;6.35;;;21.40;86.30;;;;;;5039120;28;20482;-70
2023/08/17 00:46:14;;;;;;;6.90;6.00;;;21.40;86.70;;;;;;5042689;28;20128;-70
2023/08/17 00:48:41;;;;;;;9.93;6.30;;;21.30;87.60;;;;;;5040120;28;20061;-70
2023/08/17 00:51:08;;;;;;;8.32;5.90;;;21.10;88.30;;;;;;5040379;28;20040;-70
2023/08/17 00:53:34;;;;;;;10.02;6.40;;;21.00;88.90;;;;;;5041280;28;20025;-70
2023/08/17 00:56:01;;;;;;;9.52;6.35;;;21.00;89.00;;;;;;5039095;28;20401;-70
2023/08/17 00:58:28;;;;;;;10.10;6.10;;;21.00;89.20;;;;;;5040353;28;20634;-70
2023/08/17 01:00:54;;;;;;;9.48;6.47;;;20.90;89.50;;;;;;5040072;28;20516;-68
2023/08/17 01:03:21;;;;;;;10.13;6.00;;;20.90;89.50;;;;;;5042193;28;20021;-70
2023/08/17 01:05:47;;;;;;;10.13;6.55;;;20.80;90.00;;;;;;5043073;28;20029;-70
2023/08/17 01:08:13;;;;;;;7.35;6.47;;;20.80;90.00;;;;;;5039971;28;20068;-68
2023/08/17 01:10:51;;;;;;;9.85;6.45;;;20.90;89.80;;;;;;5039516;28;20444;-70
2023/08/17 01:13:25;;;;;;;8.82;6.55;;;20.90;89.50;;;;;;5041579;28;20099;-70
2023/08/17 01:15:57;;;;;;;9.00;6.27;;;21.00;89.30;;;;;;5040046;28;20037;-70
2023/08/17 01:18:34;;;;;;;8.27;6.45;;;21.00;89.60;;;;;;5055253;28;20558;-70
2023/08/17 01:21:04;;;;;;;10.10;7.00;;;20.90;89.70;;;;;;5042433;28;20033;-71
2023/08/17 01:23:30;;;;;;;8.52;6.72;;;21.00;89.50;;;;;;5040963;28;20095;-70
2023/08/17 01:25:57;;;;;;;9.35;7.20;;;21.00;89.30;;;;;;5039719;28;20128;-71
2023/08/17 01:28:25;;;;;;;9.60;6.75;;;21.00;89.20;;;;;;5055666;28;20037;-70
2023/08/17 01:30:58;;;;;;;7.90;6.50;;;21.00;89.30;;;;;;5039607;28;20033;-70
2023/08/17 01:33:48;;;;;;;8.80;6.65;;;20.90;89.30;;;;;;5042969;28;20415;-71
2023/08/17 01:36:26;;;;;;;10.45;6.15;;;20.90;89.20;;;;;;5043141;28;20045;-70
2023/08/17 01:38:55;;;;;;;10.55;6.47;;;20.80;89.70;;;;;;5040855;28;20033;-71
2023/08/17 01:41:24;;;;;;;8.30;6.32;;;20.70;90.00;;;;;;5040977;28;20107;-70
2023/08/17 01:43:50;;;;;;;7.18;6.05;;;20.60;90.20;;;;;;5039929;28;20468;-71
2023/08/17 01:46:18;;;;;;;8.15;6.40;;;20.50;90.10;;;;;;5039309;28;20044;-71
2023/08/17 01:48:45;;;;;;;6.20;5.60;;;20.60;90.10;;;;;;5040125;28;20059;-70
2023/08/17 01:51:15;;;;;;;7.80;5.78;;;20.60;90.40;;;;;;5038235;28;20036;-70
2023/08/17 01:53:41;;;;;;;8.07;6.00;;;20.50;90.00;;;;;;5041332;28;20043;-70
2023/08/17 01:56:07;;;;;;;10.38;6.40;;;20.60;90.10;;;;;;5039375;28;20041;-68
2023/08/17 01:58:33;;;;;;;8.57;6.28;;;20.50;90.30;;;;;;5038981;28;20083;-71
2023/08/17 02:00:59;;;;;;;7.47;6.07;;;20.40;90.50;;;;;;5040019;28;20646;-71
2023/08/17 02:03:28;;;;;;;11.07;6.68;;;20.30;90.50;;;;;;5044029;28;20040;-71
2023/08/17 02:06:00;;;;;;;8.57;6.70;;;20.30;90.60;;;;;;5039684;28;20037;-70
2023/08/17 02:08:27;;;;;;;8.68;6.55;;;20.30;90.70;;;;;;5023725;28;20047;-70
2023/08/17 02:10:53;;;;;;;11.90;6.72;;;20.20;90.90;;;;;;5040044;28;20033;-70
2023/08/17 02:13:21;;;;;;;11.02;6.82;;;20.10;90.80;;;;;;5039328;28;20099;-70
2023/08/17 02:15:47;;;;;;;9.18;6.50;;;20.20;90.80;;;;;;5038404;28;20135;-71
2023/08/17 02:18:13;;;;;;;7.88;6.22;;;20.10;90.90;;;;;;5038579;28;20124;-70
2023/08/17 02:20:39;;;;;;;8.98;6.25;;;20.10;90.80;;;;;;5042048;28;20065;-70
2023/08/17 02:23:05;;;;;;;9.95;6.75;;;20.20;90.80;;;;;;5043936;28;20041;-70
2023/08/17 02:25:35;;;;;;;11.48;6.95;;;20.10;91.00;;;;;;5039465;28;20029;-69
2023/08/17 02:28:05;;;;;;;8.80;6.32;;;20.10;91.10;;;;;;5038694;28;20116;-70
2023/08/17 02:30:31;;;;;;;10.70;6.60;;;20.10;91.10;;;;;;5038715;28;20033;-69
2023/08/17 02:32:58;;;;;;;7.40;6.57;;;20.10;91.10;;;;;;5043800;28;20503;-69
2023/08/17 02:35:24;;;;;;;9.57;6.45;;;20.10;91.10;;;;;;5039981;28;20519;-70
2023/08/17 02:37:50;;;;;;;9.18;6.93;;;20.10;91.10;;;;;;5038939;28;20155;-70
2023/08/17 02:40:17;;;;;;;9.38;6.53;;;20.10;91.10;;;;;;5038450;28;20048;-70
2023/08/17 02:42:43;;;;;;;7.85;6.10;;;20.10;91.10;;;;;;5038193;28;20048;-70
2023/08/17 02:45:09;;;;;;;10.05;6.25;;;20.20;91.00;;;;;;5035226;28;20041;-69
2023/08/17 02:47:35;;;;;;;8.45;6.75;;;20.20;90.90;;;;;;5040241;28;20191;-69
2023/08/17 02:50:01;;;;;;;8.40;6.13;;;20.10;91.00;;;;;;5042531;28;20223;-70
2023/08/17 02:52:27;;;;;;;7.50;6.05;;;20.10;91.00;;;;;;5037887;28;20048;-71
2023/08/17 02:54:53;;;;;;;8.55;6.13;;;20.00;91.10;;;;;;5039820;28;20033;-70
2023/08/17 02:57:20;;;;;;;7.22;5.88;;;20.00;91.50;;;;;;5040187;28;20032;-70
2023/08/17 02:59:46;;;;;;;7.22;6.03;;;20.10;91.30;;;;;;5026379;28;20051;-70
2023/08/17 03:02:12;;;;;;;9.00;6.75;;;20.10;91.30;;;;;;5042077;28;20036;-70
2023/08/17 03:04:38;;;;;;;11.77;6.35;;;20.00;91.30;;;;;;5039097;28;21070;-73
2023/08/17 03:07:04;;;;;;;9.18;6.20;;;20.00;91.30;;;;;;5040599;28;20039;-76
2023/08/17 03:09:30;;;;;;;8.85;7.00;;;20.10;91.20;;;;;;5037789;28;20041;-73
2023/08/17 03:11:56;;;;;;;9.35;7.10;;;20.10;91.30;;;;;;5039309;28;20041;-75
2023/08/17 03:14:22;;;;;;;9.88;6.78;;;20.10;91.20;;;;;;5037384;28;20037;-75
2023/08/17 03:16:48;;;;;;;10.02;6.57;;;20.10;91.20;;;;;;5024910;28;20029;-75
2023/08/17 03:19:15;;;;;;;9.93;6.95;;;20.20;91.20;;;;;;5036195;28;20033;-75
2023/08/17 03:21:42;;;;;;;10.88;7.13;;;20.10;91.10;;;;;;5034942;28;20094;-75
2023/08/17 03:24:09;;;;;;;8.38;7.20;;;20.20;91.10;;;;;;5039465;28;20037;-75
2023/08/17 03:26:35;;;;;;;8.75;6.75;;;20.20;91.10;;;;;;5041868;28;20147;-74
2023/08/17 03:29:01;;;;;;;10.82;8.10;;;20.30;91.10;;;;;;5039770;28;20045;-74
2023/08/17 03:31:27;;;;;;;10.77;7.43;;;20.30;90.80;;;;;;5037231;28;20551;-74
2023/08/17 03:33:55;;;;;;;12.45;7.28;;;20.40;90.80;;;;;;5038426;28;20045;-74
2023/08/17 03:36:22;;;;;;;11.20;7.72;;;20.40;90.70;;;;;;5038161;28;20037;-75
2023/08/17 03:38:48;;;;;;;9.30;7.20;;;20.50;90.80;;;;;;5032504;28;20021;-74
2023/08/17 03:41:14;;;;;;;9.40;6.93;;;20.60;90.40;;;;;;5037487;28;20392;-74
2023/08/17 03:43:41;;;;;;;10.20;7.32;;;20.60;90.60;;;;;;5040503;28;20403;-74
2023/08/17 03:46:07;;;;;;;8.43;7.50;;;20.60;90.30;;;;;;5040985;28;20033;-73
2023/08/17 03:48:34;;;;;;;11.57;7.20;;;20.70;90.20;;;;;;5024828;28;20060;-73
2023/08/17 03:51:01;;;;;;;9.00;7.30;;;20.70;90.30;;;;;;5020907;28;20106;-73
2023/08/17 03:53:27;;;;;;;9.30;7.15;;;20.70;90.50;;;;;;5041847;28;20056;-72
2023/08/17 03:55:54;;;;;;;8.13;7.07;;;20.70;90.40;;;;;;5040802;28;20033;-74
2023/08/17 03:58:19;;;;;;;10.57;7.38;;;20.80;90.50;;;;;;5039639;28;20056;-74
2023/08/17 04:00:50;;;;;;;10.00;7.47;;;20.80;90.60;;;;;;5045384;28;20122;-73
2023/08/17 04:03:17;;;;;;;11.60;7.32;;;20.70;90.50;;;;;;5037621;28;20043;-73
2023/08/17 04:05:43;;;;;;;9.43;7.07;;;20.80;90.40;;;;;;5034668;28;20074;-73
2023/08/17 04:08:09;;;;;;;9.40;7.60;;;20.80;90.70;;;;;;5042272;28;20034;-72
2023/08/17 04:10:35;;;;;;;8.77;6.80;;;20.90;90.70;;;;;;5041722;28;20055;-74
2023/08/17 04:13:01;;;;;;;12.93;7.55;;;20.90;90.20;;;;;;5039365;28;20045;-75
2023/08/17 04:15:29;;;;;;;8.35;7.40;;;21.00;90.20;;;;;;5043829;28;20404;-75
2023/08/17 04:17:55;;;;;;;13.57;7.57;;;21.00;90.10;;;;;;5040616;28;20033;-76
2023/08/17 04:20:22;;;;;;;8.63;7.15;;;20.90;90.10;;;;;;5040495;28;20037;-76
2023/08/17 04:22:48;;;;;;;9.05;6.57;;;21.00;90.10;;;;;;5027524;28;20041;-76
2023/08/17 04:25:15;;;;;;;10.07;6.50;;;21.10;89.10;;;;;;5038477;28;20279;-75
2023/08/17 04:27:41;;;;;;;7.38;6.47;;;21.30;88.70;;;;;;5040706;28;20029;-74
2023/08/17 04:30:07;;;;;;;8.77;6.35;;;21.50;88.00;;;;;;5045575;28;20613;-73
2023/08/17 04:32:43;;;;;;;9.82;6.20;;;21.80;87.60;;;;;;5040854;28;20025;-75
2023/08/17 04:35:10;;;;;;;7.63;5.38;;;22.00;86.50;;;;;;5027629;28;20431;-74
2023/08/17 04:37:36;;;;;;;6.95;5.25;;;22.30;85.90;;;;;;5044558;28;20560;-73
2023/08/17 04:40:03;;;;;;;10.70;5.38;;;22.50;85.40;;;;;;5042010;28;20155;-73
2023/08/17 04:42:28;;;;;;;7.53;4.93;;;22.80;84.90;;;;;;5041053;28;20036;-74
2023/08/17 04:44:55;;;;;;;7.38;5.38;;;23.00;83.90;;;;;;5040195;28;20458;-73
2023/08/17 04:47:20;;;;;;;7.85;4.72;;;23.20;83.90;;;;;;5038855;28;20037;-74
2023/08/17 04:49:46;;;;;;;9.60;5.05;;;23.40;83.10;;;;;;5045225;28;20751;-74
2023/08/17 04:52:12;;;;;;;6.93;4.43;;;23.70;80.20;;;;;;5056975;28;20395;-75
2023/08/17 04:54:39;;;;;;;5.93;4.68;;;24.00;80.40;;;;;;5039244;28;20037;-75
2023/08/17 04:57:05;;;;;;;6.47;4.45;;;24.20;78.40;;;;;;5040494;28;20033;-76
2023/08/17 04:59:31;;;;;;;9.25;4.93;;;24.50;79.20;;;;;;5040569;28;20025;-76
2023/08/17 05:01:57;;;;;;;5.90;4.30;;;24.70;78.90;;;;;;5039482;28;20033;-76
2023/08/17 05:04:23;;;;;;;6.70;3.95;;;24.90;78.40;;;;;;5039576;28;20634;-76
2023/08/17 05:06:49;;;;;;;7.90;4.00;;;25.10;74.90;;;;;;5037880;28;20033;-76
2023/08/17 05:09:15;;;;;;;5.45;3.60;;;25.30;74.40;;;;;;5038523;28;20477;-79
2023/08/17 05:11:41;;;;;;;8.25;3.50;;;25.50;72.60;;;;;;5038866;28;20167;-77
2023/08/17 05:14:07;;;;;;;4.90;3.70;;;25.70;72.60;;;;;;5037749;28;20037;-76
2023/08/17 05:16:33;;;;;;;4.07;3.30;;;25.90;73.40;;;;;;5042830;28;20045;-78
2023/08/17 05:18:59;;;;;;;4.85;3.10;;;26.10;73.50;;;;;;5038999;28;20043;-76
2023/08/17 05:21:26;;;;;;;5.45;3.50;;;26.30;73.50;;;;;;5010354;28;20060;-76
2023/08/17 05:23:52;;;;;;;7.22;3.30;;;26.50;73.40;;;;;;5040054;28;20041;-77
2023/08/17 05:26:18;;;;;;;6.22;3.88;;;26.60;71.40;;;;;;5039197;28;20044;-78
2023/08/17 05:28:44;;;;;;;5.35;3.65;;;26.80;70.60;;;;;;5042568;28;20033;-76
2023/08/17 05:31:11;;;;;;;7.78;3.80;;;27.00;70.50;;;;;;5026688;28;20191;-76
2023/08/17 05:33:41;;;;;;;7.13;3.65;;;27.20;70.30;;;;;;5039639;28;20029;-79
2023/08/17 05:36:07;;;;;;;6.72;4.00;;;27.30;69.90;;;;;;5043266;28;21568;-78
2023/08/17 05:38:33;;;;;;;8.07;3.97;;;27.40;70.00;;;;;;5041566;28;20029;-79
2023/08/17 05:41:01;;;;;;;6.35;3.50;;;27.50;68.00;;;;;;5041974;28;20047;-76
2023/08/17 05:43:28;;;;;;;6.78;3.33;;;27.70;69.00;;;;;;5043368;28;20518;-74
2023/08/17 05:45:58;;;;;;;11.50;4.47;;;27.60;67.50;;;;;;5041805;28;20699;-73
2023/08/17 05:48:24;;;;;;;13.38;4.65;;;27.60;69.60;;;;;;5041267;28;20040;-75
2023/08/17 05:50:50;;;;;;;13.85;5.28;;;27.50;71.00;;;;;;5040798;28;20171;-75
2023/08/17 05:53:16;;;;;;;15.57;4.70;;;27.60;71.00;;;;;;5042481;28;20116;-76
2023/08/17 05:55:42;;;;;;;13.15;4.50;;;27.60;71.10;;;;;;5026654;28;20045;-75
2023/08/17 05:58:08;;;;;;;9.60;3.70;;;27.60;70.90;;;;;;5043313;28;20033;-77
2023/08/17 06:00:35;;;;;;;13.40;4.32;;;27.70;68.10;;;;;;5022501;28;20578;-77
2023/08/17 06:03:01;;;;;;;11.43;3.65;;;27.80;70.30;;;;;;5011811;28;20094;-77
2023/08/17 06:05:28;;;;;;;16.60;4.45;;;27.80;68.10;;;;;;5025808;28;20324;-74
2023/08/17 06:07:57;;;;;;;11.45;3.47;;;27.90;69.50;;;;;;5039519;28;20996;-75
2023/08/17 06:10:27;;;;;;;15.63;4.05;;;27.90;68.00;;;;;;5024501;28;20063;-74
2023/08/17 06:12:54;;;;;;;12.13;4.30;;;28.10;68.10;;;;;;5042313;28;20041;-75
2023/08/17 06:15:20;;;;;;;14.70;4.57;;;28.10;68.70;;;;;;5024062;28;20040;-76
2023/08/17 06:17:46;;;;;;;17.52;3.88;;;28.20;67.80;;;;;;5009792;28;20040;-76
2023/08/17 06:20:14;;;;;;;15.68;4.55;;;28.20;67.50;;;;;;5024786;28;20036;-79
2023/08/17 06:22:40;;;;;;;9.05;3.55;;;28.30;68.80;;;;;;5008198;28;20060;-79
2023/08/17 06:25:07;;;;;;;17.02;4.25;;;28.40;67.00;;;;;;5007813;28;20527;-77
2023/08/17 06:27:34;;;;;;;22.83;6.15;;;28.40;67.60;;;;;;5024378;28;20037;-78
2023/08/17 06:30:02;;;;;;;24.33;6.60;;;28.50;68.30;;;;;;5038669;28;20041;-80
2023/08/17 06:32:32;;;;;;;11.35;5.30;;;28.70;68.00;;;;;;5008769;28;20048;-77
2023/08/17 06:34:58;;;;;;;18.95;7.97;;;28.70;65.80;;;;;;5037787;28;20076;-81
2023/08/17 06:37:24;;;;;;;16.65;6.82;;;28.70;66.60;;;;;;5037675;28;20576;-80
2023/08/17 06:39:50;;;;;;;25.38;6.45;;;28.70;64.30;;;;;;5041543;28;20113;-77
2023/08/17 06:42:16;;;;;;;25.92;7.15;;;28.70;63.30;;;;;;5040892;28;20025;-77
2023/08/17 06:44:42;;;;;;;56.13;11.57;;;28.80;64.80;;;;;;5025598;28;20025;-78
2023/08/17 06:47:08;;;;;;;99.05;16.33;;;28.80;66.00;;;;;;5041641;28;20529;-77
2023/08/17 06:49:36;;;;;;;110.35;15.13;;;28.90;66.30;;;;;;5024827;28;20041;-79
2023/08/17 06:52:02;;;;;;;111.88;17.23;;;28.90;65.80;;;;;;5037787;28;20124;-77
2023/08/17 06:54:28;;;;;;;100.65;17.00;;;29.00;66.80;;;;;;5038553;28;20072;-76
2023/08/17 06:56:54;;;;;;;114.68;15.70;;;29.00;66.20;;;;;;5018852;28;20530;-77
2023/08/17 06:59:20;;;;;;;50.25;9.05;;;29.00;66.40;;;;;;5022612;28;20131;-83
2023/08/17 07:01:46;;;;;;;21.48;4.57;;;29.10;63.60;;;;;;5012685;28;20112;-80
2023/08/17 07:04:12;;;;;;;50.53;8.35;;;29.10;60.20;;;;;;5040975;28;20029;-89
2023/08/17 07:06:41;;;;;;;21.15;4.38;;;29.10;62.70;;;;;;5041371;28;20037;-88
2023/08/17 07:09:07;;;;;;;32.50;5.50;;;29.10;61.90;;;;;;5040698;28;20269;-81
2023/08/17 07:11:33;;;;;;;43.47;7.00;;;29.10;60.50;;;;;;5040156;28;20032;-83
2023/08/17 07:13:59;;;;;;;13.57;3.60;;;29.10;62.00;;;;;;5038556;28;20061;-84
2023/08/17 07:16:25;;;;;;;36.83;6.47;;;29.10;59.50;;;;;;5039433;28;20033;-77
2023/08/17 07:18:51;;;;;;;32.03;5.00;;;29.20;62.40;;;;;;5040458;28;20061;-78
2023/08/17 07:21:17;;;;;;;24.35;4.63;;;29.30;61.80;;;;;;5040027;28;20037;-77
2023/08/17 07:23:45;;;;;;;25.02;4.90;;;29.30;58.10;;;;;;5039814;28;20120;-75
2023/08/17 07:26:11;;;;;;;26.05;6.82;;;29.30;59.00;;;;;;5038653;28;20040;-76
2023/08/17 07:28:37;;;;;;;53.28;7.13;;;29.30;59.50;;;;;;5040467;28;20029;-75
2023/08/17 07:31:05;;;;;;;29.92;4.93;;;29.30;60.90;;;;;;5039214;28;20033;-75
2023/08/17 07:33:31;;;;;;;68.18;8.20;;;29.20;59.20;;;;;;5043431;28;20128;-76
2023/08/17 07:35:58;;;;;;;52.28;8.00;;;29.20;61.50;;;;;;5044356;28;20077;-76
2023/08/17 07:38:24;;;;;;;55.58;7.38;;;29.20;61.80;;;;;;5029242;28;20078;-75
2023/08/17 07:40:50;;;;;;;46.45;7.95;;;29.20;58.50;;;;;;5044157;28;20041;-76
2023/08/17 07:43:16;;;;;;;58.50;8.95;;;29.30;59.40;;;;;;5043693;28;20043;-76
2023/08/17 07:45:42;;;;;;;62.45;8.70;;;29.20;59.20;;;;;;5042555;28;20488;-78
2023/08/17 07:48:08;;;;;;;54.03;8.98;;;29.20;61.50;;;;;;5042105;28;20051;-76
2023/08/17 07:50:34;;;;;;;51.15;9.00;;;29.30;59.60;;;;;;5042904;28;20091;-76
2023/08/17 07:53:00;;;;;;;41.58;7.43;;;29.30;59.30;;;;;;5042851;28;20033;-76
2023/08/17 07:55:26;;;;;;;19.48;5.00;;;29.30;59.30;;;;;;5041955;28;20039;-77
2023/08/17 07:57:52;;;;;;;18.88;4.97;;;29.10;55.90;;;;;;5041949;28;20120;-76
2023/08/17 08:00:18;;;;;;;25.13;4.93;;;29.20;57.00;;;;;;5040166;28;20417;-77
2023/08/17 08:02:44;;;;;;;23.25;4.78;;;29.20;57.70;;;;;;5045692;28;20025;-76
2023/08/17 08:05:10;;;;;;;60.80;10.23;;;29.10;58.10;;;;;;5042721;28;20056;-77
2023/08/17 08:07:36;;;;;;;20.90;5.05;;;29.10;60.90;;;;;;5043107;28;20505;-76
2023/08/17 08:10:02;;;;;;;2.10;1.80;;;29.00;57.00;;;;;;5041760;28;20041;-77
2023/08/17 08:12:28;;;;;;;10.43;2.97;;;28.90;54.70;;;;;;5042724;28;20049;-76
2023/08/17 08:14:54;;;;;;;8.52;2.65;;;28.90;57.10;;;;;;5043495;28;20056;-78
2023/08/17 08:17:20;;;;;;;4.55;2.45;;;28.80;56.10;;;;;;5041621;28;20039;-76
2023/08/17 08:19:46;;;;;;;3.72;2.08;;;28.80;55.40;;;;;;5042450;28;20989;-78
2023/08/17 08:22:12;;;;;;;3.25;2.00;;;28.60;55.10;;;;;;5042369;28;20033;-75
2023/08/17 08:24:41;;;;;;;4.43;2.35;;;28.60;54.60;;;;;;5044666;28;20517;-76
2023/08/17 08:27:07;;;;;;;5.20;2.75;;;28.60;54.50;;;;;;5040566;28;20036;-76
2023/08/17 08:29:34;;;;;;;2.83;2.40;;;28.60;56.40;;;;;;5041230;28;20408;-81
2023/08/17 08:32:02;;;;;;;2.08;1.85;;;28.50;53.80;;;;;;5042644;28;21296;-79
2023/08/17 08:34:28;;;;;;;3.40;2.15;;;28.50;53.70;;;;;;5040076;28;20403;-77
2023/08/17 08:36:55;;;;;;;2.55;2.08;;;28.30;53.60;;;;;;5043309;28;20037;-81
2023/08/17 08:39:21;;;;;;;4.82;2.00;;;28.30;54.20;;;;;;5042422;28;20037;-79
2023/08/17 08:41:47;;;;;;;3.28;2.10;;;28.30;54.80;;;;;;5042522;28;20029;-78
2023/08/17 08:44:13;;;;;;;2.35;2.13;;;28.30;53.60;;;;;;5042506;28;20036;-86
2023/08/17 08:46:43;;;;;;;3.95;1.92;;;28.30;54.60;;;;;;5042018;28;20037;-80
2023/08/17 08:49:11;;;;;;;2.38;2.15;;;28.30;54.00;;;;;;5039846;28;20128;-79
2023/08/17 08:51:41;;;;;;;2.50;2.10;;;28.20;54.60;;;;;;5042822;28;20401;-77
2023/08/17 08:54:10;;;;;;;3.63;1.88;;;28.10;54.40;;;;;;5040815;28;20566;-74
2023/08/17 08:56:38;;;;;;;4.57;2.17;;;28.10;55.20;;;;;;5042704;28;20042;-81
2023/08/17 08:59:05;;;;;;;3.47;2.47;;;28.10;56.80;;;;;;5038388;28;20040;-77
2023/08/17 09:01:31;;;;;;;5.93;2.92;;;28.10;56.80;;;;;;5040266;28;20037;-77
2023/08/17 09:04:02;;;;;;;4.03;3.13;;;28.10;56.90;;;;;;5040901;28;20041;-76
2023/08/17 09:06:32;;;;;;;3.22;2.50;;;28.10;57.70;;;;;;5039322;28;20082;-77
2023/08/17 09:09:00;;;;;;;2.78;2.58;;;28.00;57.90;;;;;;5057229;28;20041;-78
2023/08/17 09:11:26;;;;;;;4.03;2.67;;;28.00;57.60;;;;;;5022973;28;20403;-76
2023/08/17 09:13:54;;;;;;;4.25;3.20;;;28.10;56.40;;;;;;5038186;28;20036;-75
2023/08/17 09:16:20;;;;;;;3.80;2.83;;;28.00;55.80;;;;;;5043967;28;20476;-75
2023/08/17 09:18:47;;;;;;;2.83;2.58;;;28.00;56.60;;;;;;5042116;28;20032;-79
2023/08/17 09:21:32;;;;;;;9.63;8.40;;;27.90;57.30;;;;;;5040664;28;20036;-78
2023/08/17 09:23:58;;;;;;;4.07;3.65;;;27.90;55.60;;;;;;5042039;28;20471;-77
2023/08/17 09:26:24;;;;;;;3.05;2.40;;;27.80;55.30;;;;;;5040700;28;20025;-76
2023/08/17 09:28:51;;;;;;;5.90;2.50;;;27.70;54.80;;;;;;5041328;28;20084;-78
2023/08/17 09:31:21;;;;;;;3.00;2.40;;;27.70;55.00;;;;;;5040118;28;20069;-76
2023/08/17 09:33:53;;;;;;;2.70;2.13;;;27.70;55.20;;;;;;5041383;28;20399;-73
2023/08/17 09:36:22;;;;;;;5.05;2.42;;;27.60;55.50;;;;;;5041302;28;20029;-76
2023/08/17 09:38:50;;;;;;;4.35;2.88;;;27.60;57.00;;;;;;5039076;28;20124;-74
2023/08/17 09:41:17;;;;;;;4.25;2.72;;;27.60;57.20;;;;;;5042663;28;20036;-80
2023/08/17 09:43:43;;;;;;;5.90;4.20;;;27.60;55.30;;;;;;5040623;28;20037;-80
2023/08/17 09:46:10;;;;;;;4.55;2.75;;;27.50;55.70;;;;;;5038526;28;20037;-79
2023/08/17 09:48:36;;;;;;;2.33;2.13;;;27.50;56.70;;;;;;5041686;28;20503;-79
2023/08/17 09:51:06;;;;;;;2.72;2.25;;;27.50;56.40;;;;;;5043331;28;20503;-80
2023/08/17 09:53:36;;;;;;;3.45;2.70;;;27.50;56.50;;;;;;5042961;28;20407;-80
2023/08/17 09:56:07;;;;;;;3.22;2.30;;;27.50;56.90;;;;;;5042532;28;20040;-84
2023/08/17 09:58:33;;;;;;;2.75;2.50;;;27.50;57.90;;;;;;5039783;28;20708;-78
2023/08/17 10:01:04;;;;;;;3.72;2.72;;;27.50;57.70;;;;;;5039651;28;20056;-80
2023/08/17 10:03:34;;;;;;;9.52;2.35;;;27.50;57.00;;;;;;5043174;28;20636;-77
2023/08/17 10:06:09;;;;;;;3.28;2.40;;;27.50;56.50;;;;;;5021435;28;20481;-79
2023/08/17 10:08:46;;;;;;;4.40;2.58;;;27.50;56.10;;;;;;5040609;28;20392;-75
2023/08/17 10:11:14;;;;;;;2.60;2.40;;;27.50;56.30;;;;;;5039077;28;20037;-75
2023/08/17 10:13:47;;;;;;;6.05;2.78;;;27.40;56.10;;;;;;5038186;28;20652;-76
2023/08/17 10:16:33;;;;;;;4.95;2.55;;;27.40;57.10;;;;;;5040158;28;20037;-77
2023/08/17 10:19:13;;;;;;;6.10;2.40;;;27.40;57.60;;;;;;5041395;28;20049;-77
2023/08/17 10:22:12;;;;;;;4.78;2.95;;;27.40;58.10;;;;;;5040007;28;20038;-78
2023/08/17 10:24:39;;;;;;;5.38;2.50;;;27.40;57.70;;;;;;5023167;28;20056;-78
2023/08/17 10:27:06;;;;;;;2.95;2.50;;;27.50;57.20;;;;;;5041263;28;20302;-77
2023/08/17 10:29:33;;;;;;;3.22;2.55;;;27.50;57.40;;;;;;5039188;28;20032;-78
2023/08/17 10:32:01;;;;;;;3.83;2.78;;;27.50;56.80;;;;;;5040092;28;20038;-80
2023/08/17 10:34:28;;;;;;;2.42;2.22;;;27.50;57.10;;;;;;5039316;28;20404;-78
2023/08/17 10:36:57;;;;;;;4.22;2.25;;;27.50;55.40;;;;;;5026312;28;20037;-79
2023/08/17 10:39:25;;;;;;;3.03;2.58;;;27.40;55.50;;;;;;5039305;28;20733;-78
2023/08/17 10:41:52;;;;;;;18.35;2.17;;;27.40;55.90;;;;;;5038808;28;20411;-79
2023/08/17 10:44:43;;;;;;;4.05;2.20;;;27.30;57.00;;;;;;5039669;28;20396;-78
2023/08/17 10:47:26;;;;;;;4.78;2.58;;;27.30;57.00;;;;;;5038498;28;20478;-77
2023/08/17 10:49:57;;;;;;;2.75;2.08;;;27.30;57.00;;;;;;5042190;28;20148;-78
2023/08/17 10:52:31;;;;;;;4.38;2.35;;;27.40;55.90;;;;;;5039644;28;20040;-76
2023/08/17 10:54:59;;;;;;;2.38;2.17;;;27.30;56.50;;;;;;5039494;28;20091;-76
2023/08/17 10:57:36;;;;;;;2.55;2.25;;;27.30;57.30;;;;;;5036676;28;20038;-75
2023/08/17 11:00:16;;;;;;;3.65;2.20;;;27.40;58.50;;;;;;5054550;28;20064;-75
2023/08/17 11:02:59;;;;;;;2.70;2.50;;;27.40;56.80;;;;;;5038597;28;20041;-76
2023/08/17 11:05:36;;;;;;;3.50;2.65;;;27.30;57.50;;;;;;5039071;28;20044;-76
2023/08/17 11:08:02;;;;;;;4.50;3.13;;;27.40;57.60;;;;;;5041649;28;20187;-75
2023/08/17 11:10:29;;;;;;;6.55;2.72;;;27.40;56.20;;;;;;5044952;28;20037;-75
2023/08/17 11:12:59;;;;;;;4.03;2.70;;;27.40;56.10;;;;;;5043733;28;20067;-76
2023/08/17 11:15:26;;;;;;;3.00;2.42;;;27.40;56.30;;;;;;5043603;28;20075;-75
2023/08/17 11:17:53;;;;;;;3.50;2.28;;;27.40;56.30;;;;;;5044599;28;20143;-76
2023/08/17 11:20:19;;;;;;;2.47;2.28;;;27.30;55.90;;;;;;5042946;28;20038;-76
2023/08/17 11:22:46;;;;;;;2.88;2.42;;;27.40;55.50;;;;;;5043804;28;20043;-76
2023/08/17 11:25:13;;;;;;;4.20;2.30;;;27.30;55.40;;;;;;5043623;28;20041;-75
2023/08/17 11:27:39;;;;;;;3.28;2.40;;;27.30;56.20;;;;;;5045733;28;20036;-75
2023/08/17 11:30:05;;;;;;;3.42;2.35;;;27.30;56.80;;;;;;5042096;28;20037;-75
2023/08/17 11:32:31;;;;;;;3.03;2.05;;;27.30;56.30;;;;;;5045037;28;20435;-75
2023/08/17 11:34:57;;;;;;;2.17;1.95;;;27.30;56.00;;;;;;5045038;28;20053;-84
2023/08/17 11:37:23;;;;;;;2.97;2.50;;;27.30;55.50;;;;;;5045853;28;20522;-78
2023/08/17 11:39:49;;;;;;;2.22;2.03;;;27.30;55.60;;;;;;5042412;28;20048;-73
2023/08/17 11:42:15;;;;;;;4.03;2.20;;;27.30;55.70;;;;;;5040214;28;20048;-78
2023/08/17 11:44:41;;;;;;;2.90;2.38;;;27.20;56.40;;;;;;5042519;28;20029;-78
2023/08/17 11:47:07;;;;;;;3.05;2.30;;;27.20;56.50;;;;;;5046795;28;20029;-77
2023/08/17 11:49:33;;;;;;;5.43;2.20;;;27.20;57.20;;;;;;5043582;28;20029;-74
2023/08/17 11:52:00;;;;;;;5.57;2.65;;;27.20;57.30;;;;;;5042214;28;20044;-77
2023/08/17 11:54:25;;;;;;;3.85;2.47;;;27.20;56.70;;;;;;5041587;28;20116;-77
2023/08/17 11:56:51;;;;;;;3.55;2.15;;;27.30;57.70;;;;;;5041987;28;20834;-76
2023/08/17 11:59:19;;;;;;;4.00;2.28;;;27.30;57.60;;;;;;5042024;28;20083;-77
2023/08/17 12:01:45;;;;;;;5.45;2.22;;;27.30;57.00;;;;;;5043709;28;20064;-77
2023/08/17 12:04:11;;;;;;;8.15;2.10;;;27.20;56.70;;;;;;5042918;28;20036;-80
2023/08/17 12:06:47;;;;;;;5.03;2.10;;;27.20;55.50;;;;;;5042112;28;20056;-82
2023/08/17 12:09:14;;;;;;;4.63;2.10;;;27.20;55.60;;;;;;5040889;28;20037;-75
2023/08/17 12:11:40;;;;;;;4.68;2.03;;;27.20;55.90;;;;;;5042410;28;20033;-78
2023/08/17 12:14:11;;;;;;;4.35;2.60;;;27.30;56.50;;;;;;5022519;28;20072;-80
2023/08/17 12:16:50;;;;;;;2.72;2.20;;;27.30;55.90;;;;;;5045407;28;20064;-83
2023/08/17 12:19:16;;;;;;;3.28;2.30;;;27.30;56.50;;;;;;5042648;28;20037;-80
2023/08/17 12:21:42;;;;;;;4.40;2.10;;;27.30;55.90;;;;;;5040969;28;20457;-80
2023/08/17 12:24:12;;;;;;;2.38;2.10;;;27.30;56.20;;;;;;5040681;28;20037;-76
2023/08/17 12:26:42;;;;;;;1.90;1.80;;;27.30;56.20;;;;;;5046129;28;20029;-77
2023/08/17 12:29:08;;;;;;;2.92;2.35;;;27.30;55.70;;;;;;5042173;28;20052;-75
2023/08/17 12:31:34;;;;;;;4.70;2.50;;;27.30;56.50;;;;;;5040136;28;20519;-77
2023/08/17 12:34:00;;;;;;;5.25;2.42;;;27.30;56.70;;;;;;5043023;28;20457;-78
2023/08/17 12:36:26;;;;;;;5.05;2.45;;;27.20;56.60;;;;;;5043918;28;20147;-76
2023/08/17 12:38:52;;;;;;;4.65;2.20;;;27.20;57.60;;;;;;5042367;28;20511;-76
2023/08/17 12:41:19;;;;;;;5.00;2.33;;;27.30;57.30;;;;;;5042070;28;20543;-75
2023/08/17 12:43:44;;;;;;;5.93;2.65;;;27.30;57.70;;;;;;5044645;28;20519;-77
2023/08/17 12:46:10;;;;;;;4.60;2.80;;;27.30;56.90;;;;;;5044293;28;20051;-76